Time;durP1;ratioP1;P1;durP2;ratioP2;P2;SDS_P1;SDS_P2;PMS_P1;PMS_P2;Temp;Humidity;BMP_temperature;BMP_pressure;BME280_temperature;BME280_humidity;BME280_pressure;Samples;Min_cycle;Max_cycle;Signal;HPM_P1;HPM_P2
2023/01/01 00:02:15;;;;;;;28.10;19.45;;;;;;;8.35;85.19;100106.03;1656219;85;21769;-80
2023/01/01 00:04:42;;;;;;;22.22;18.52;;;;;;;8.41;85.10;100101.12;1650084;87;21582;-81
2023/01/01 00:07:09;;;;;;;26.20;22.27;;;;;;;8.44;85.08;100106.02;1655528;85;21528;-80
2023/01/01 00:12:23;;;;;;;23.00;17.40;;;;;;;8.48;84.73;100097.02;1637845;87;20971;-80
2023/01/01 00:14:51;;;;;;;21.27;18.23;;;;;;;8.47;84.69;100092.70;1658276;85;20988;-82
2023/01/01 00:17:18;;;;;;;26.17;19.17;;;;;;;8.45;84.65;100100.13;1647640;85;21066;-83
2023/01/01 00:19:46;;;;;;;25.92;18.70;;;;;;;8.44;84.68;100105.23;1650994;85;21656;-78
2023/01/01 00:22:12;;;;;;;30.35;20.75;;;;;;;8.46;84.86;100100.44;1647188;87;21106;-82
2023/01/01 00:24:39;;;;;;;22.07;18.02;;;;;;;8.47;84.88;100094.86;1659723;84;21059;-81
2023/01/01 00:27:06;;;;;;;24.52;18.55;;;;;;;8.51;84.89;100106.77;1652625;84;21060;-81
2023/01/01 00:29:32;;;;;;;24.98;18.67;;;;;;;8.53;84.78;100100.67;1650832;84;21053;-81
2023/01/01 00:32:02;;;;;;;23.50;19.70;;;;;;;8.56;84.67;100095.36;1657715;86;21052;-74
2023/01/01 00:34:29;;;;;;;24.50;19.70;;;;;;;8.55;84.65;100091.86;1624682;86;21669;-80
2023/01/01 00:36:56;;;;;;;24.50;19.40;;;;;;;8.53;84.71;100095.30;1656762;86;20983;-79
2023/01/01 00:39:25;;;;;;;23.15;18.52;;;;;;;8.52;84.77;100086.14;1668071;84;20973;-80
2023/01/01 00:41:51;;;;;;;26.57;18.42;;;;;;;8.49;84.96;100092.76;1665318;84;21105;-79
2023/01/01 00:44:19;;;;;;;22.45;18.57;;;;;;;8.48;85.09;100093.83;1661869;85;21000;-79
2023/01/01 00:46:46;;;;;;;19.98;17.80;;;;;;;8.50;85.28;100090.38;1639822;86;21084;-79
2023/01/01 00:49:13;;;;;;;27.10;20.23;;;;;;;8.53;85.33;100087.27;1639749;86;21505;-82
2023/01/01 00:51:39;;;;;;;30.55;21.45;;;;;;;8.55;85.29;100087.84;1668377;84;20987;-80
2023/01/01 00:54:06;;;;;;;25.70;20.62;;;;;;;8.55;85.27;100085.16;1692485;84;21043;-80
2023/01/01 00:56:36;;;;;;;27.32;21.73;;;;;;;8.56;85.36;100089.48;1644572;86;21598;-79
2023/01/01 00:59:05;;;;;;;26.07;19.07;;;;;;;8.56;85.43;100087.32;1638501;86;21185;-80
2023/01/01 01:01:33;;;;;;;28.52;21.15;;;;;;;8.56;85.59;100073.39;1666112;84;21578;-80
2023/01/01 01:04:02;;;;;;;26.10;20.68;;;;;;;8.57;85.69;100070.19;1656134;84;21132;-80
2023/01/01 01:06:29;;;;;;;24.80;19.27;;;;;;;8.58;85.79;100070.50;1663281;85;21533;-81
2023/01/01 01:08:57;;;;;;;22.22;18.92;;;;;;;8.62;85.96;100067.65;1666043;86;21060;-83
2023/01/01 01:11:24;;;;;;;26.62;20.45;;;;;;;8.66;86.07;100072.33;1663882;84;21151;-81
2023/01/01 01:13:54;;;;;;;24.92;20.55;;;;;;;8.71;86.09;100075.15;1667584;86;20991;-81
2023/01/01 01:16:28;;;;;;;27.90;22.05;;;;;;;8.77;86.08;100084.14;1666416;84;21072;-79
2023/01/01 01:19:00;;;;;;;;;;;;;;;8.80;86.05;100083.68;1676973;84;20996;-79
2023/01/01 01:21:24;;;;;;;28.65;21.85;;;;;;;8.82;85.99;100084.28;1694045;84;20154;-80
2023/01/01 01:23:54;;;;;;;26.60;19.32;;;;;;;8.84;86.01;100079.48;1696894;83;21354;-80
2023/01/01 01:26:23;;;;;;;28.70;21.00;;;;;;;8.83;85.94;100083.21;1686240;84;21120;-80
2023/01/01 01:28:51;;;;;;;24.35;18.90;;;;;;;8.85;86.13;100081.65;1677599;84;21060;-81
2023/01/01 01:31:19;;;;;;;24.12;20.00;;;;;;;8.88;86.25;100080.66;1663199;84;21000;-77
2023/01/01 01:33:46;;;;;;;25.10;18.37;;;;;;;8.93;86.29;100066.56;1663406;84;21076;-77
2023/01/01 01:36:13;;;;;;;25.60;19.40;;;;;;;8.97;86.17;100059.16;1660513;84;21284;-78
2023/01/01 01:38:40;;;;;;;21.52;18.37;;;;;;;9.00;86.05;100062.75;1694029;84;21019;-79
2023/01/01 01:41:08;;;;;;;26.12;20.70;;;;;;;9.04;86.06;100069.80;1689786;84;20996;-78
2023/01/01 01:43:41;;;;;;;22.77;18.73;;;;;;;9.06;86.06;100069.06;1665378;86;21027;-78
2023/01/01 01:46:14;;;;;;;22.58;18.67;;;;;;;9.08;86.08;100061.58;1665812;84;21056;-80
2023/01/01 01:48:45;;;;;;;22.93;17.45;;;;;;;9.09;86.15;100065.91;1663366;84;21183;-78
2023/01/01 01:51:13;;;;;;;20.77;16.67;;;;;;;9.11;86.24;100065.16;1638435;86;21071;-79
2023/01/01 01:53:45;;;;;;;22.40;16.95;;;;;;;9.14;86.34;100058.80;1663368;86;21529;-78
2023/01/01 01:56:15;;;;;;;18.32;14.33;;;;;;;9.21;86.37;100053.86;1663443;86;21608;-78
2023/01/01 01:58:42;;;;;;;19.30;13.78;;;;;;;9.27;86.29;100056.41;1661862;84;21743;-79
2023/01/01 02:01:08;;;;;;;23.18;15.60;;;;;;;9.33;86.22;100061.37;1651767;85;21130;-79
2023/01/01 02:03:52;;;;;;;17.98;15.88;;;;;;;9.37;86.14;100061.20;1648890;86;20989;-79
2023/01/01 02:06:18;;;;;;;19.35;15.32;;;;;;;9.40;86.17;100062.10;1674243;85;21087;-79
2023/01/01 02:08:48;;;;;;;18.92;13.53;;;;;;;9.43;86.13;100060.28;1669959;85;21660;-79
2023/01/01 02:11:16;;;;;;;18.00;13.40;;;;;;;9.45;86.07;100044.22;1655798;85;21064;-79
2023/01/01 02:13:44;;;;;;;19.90;13.98;;;;;;;9.47;86.07;100055.55;1663345;85;21106;-79
2023/01/01 02:16:21;;;;;;;15.95;13.18;;;;;;;9.52;86.10;100047.62;1665233;85;21078;-80
2023/01/01 02:19:39;;;;;;;16.87;13.83;;;;;;;9.56;86.04;100035.88;1659142;85;21031;-78
2023/01/01 02:22:27;;;;;;;14.93;12.82;;;;;;;9.61;86.02;100027.93;1652784;85;21021;-80
2023/01/01 02:24:59;;;;;;;16.60;14.05;;;;;;;9.68;85.91;100025.95;1621288;85;21564;-79
2023/01/01 02:27:46;;;;;;;14.58;13.05;;;;;;;9.73;85.74;100027.93;1667263;85;21143;-79
2023/01/01 02:30:13;;;;;;;17.10;12.88;;;;;;;9.75;85.65;100040.58;1669724;84;21096;-79
2023/01/01 02:32:50;;;;;;;20.72;13.85;;;;;;;9.77;85.59;100043.86;1646012;85;21012;-79
2023/01/01 02:35:33;;;;;;;18.90;13.20;;;;;;;9.79;85.56;100035.02;1643784;85;21108;-78
2023/01/01 02:38:23;;;;;;;15.20;12.10;;;;;;;9.83;85.54;100036.20;1666215;86;21076;-80
2023/01/01 02:41:03;;;;;;;15.05;12.95;;;;;;;9.89;85.44;100036.58;1662032;86;21223;-78
2023/01/01 02:43:30;;;;;;;18.37;14.80;;;;;;;9.93;85.38;100033.19;1621803;85;21338;-79
2023/01/01 02:45:57;;;;;;;15.85;13.55;;;;;;;9.99;85.26;100032.25;1639500;85;21067;-78
2023/01/01 02:48:49;;;;;;;16.70;12.60;;;;;;;10.04;85.05;100027.50;1637193;87;21056;-79
2023/01/01 02:51:43;;;;;;;13.70;11.85;;;;;;;10.05;84.76;100042.58;1636291;85;21080;-79
2023/01/01 02:54:25;;;;;;;16.10;13.78;;;;;;;10.04;84.68;100027.50;1629619;86;21219;-77
2023/01/01 02:56:57;;;;;;;17.82;13.00;;;;;;;10.05;84.73;100024.59;1636763;86;21072;-81
2023/01/01 03:02:38;;;;;;;16.15;11.88;;;;;;;10.14;84.68;100030.39;1618777;86;21025;-78
2023/01/01 03:05:35;;;;;;;14.10;12.50;;;;;;;10.22;84.41;100031.91;1662343;84;21072;-78
2023/01/01 03:08:17;;;;;;;14.53;12.20;;;;;;;10.22;84.25;100031.91;1685922;84;21284;-78
2023/01/01 03:10:51;;;;;;;16.97;12.80;;;;;;;10.23;84.18;100039.74;1664915;84;21028;-79
2023/01/01 03:13:38;;;;;;;15.63;13.13;;;;;;;10.24;84.06;100039.22;1665078;84;21336;-76
2023/01/01 03:16:17;;;;;;;13.88;10.85;;;;;;;10.24;84.04;100043.25;1661577;85;21597;-78
2023/01/01 03:19:13;;;;;;;13.05;11.22;;;;;;;10.22;84.03;100042.13;1612712;88;21588;-78
2023/01/01 03:21:44;;;;;;;14.80;11.48;;;;;;;10.24;84.17;100041.91;1645679;84;21153;-78
2023/01/01 03:24:26;;;;;;;13.53;10.98;;;;;;;10.28;84.23;100043.87;1657941;86;21033;-77
2023/01/01 03:26:57;;;;;;;11.68;10.43;;;;;;;10.33;84.09;100043.98;1626544;86;21051;-78
2023/01/01 03:29:24;;;;;;;13.75;10.48;;;;;;;10.36;83.94;100048.08;1667793;85;20981;-79
2023/01/01 03:31:52;;;;;;;11.15;9.93;;;;;;;10.38;83.90;100041.91;1638269;86;21118;-78
2023/01/01 03:34:23;;;;;;;16.23;10.45;;;;;;;10.39;83.84;100047.59;1656861;86;22003;-77
2023/01/01 03:36:54;;;;;;;12.75;10.65;;;;;;;10.37;83.85;100045.13;1648229;86;21828;-78
2023/01/01 03:39:34;;;;;;;11.45;9.48;;;;;;;10.39;83.93;100048.41;1648447;86;20952;-77
2023/01/01 03:42:34;;;;;;;11.73;9.50;;;;;;;10.41;83.94;100060.24;1668621;85;21087;-79
2023/01/01 03:45:08;;;;;;;10.78;8.80;;;;;;;10.44;83.98;100047.69;1656204;84;21052;-77
2023/01/01 03:47:35;;;;;;;14.70;10.58;;;;;;;10.47;83.69;100048.02;1663391;84;21143;-80
2023/01/01 03:50:02;;;;;;;14.45;10.03;;;;;;;10.50;83.67;100048.08;1642022;85;21063;-80
2023/01/01 03:52:58;;;;;;;13.65;10.03;;;;;;;10.51;83.65;100044.31;1644801;84;21015;-80
2023/01/01 03:55:36;;;;;;;11.78;9.85;;;;;;;10.51;83.68;100041.62;1658473;84;21169;-80
2023/01/01 03:58:17;;;;;;;12.43;8.90;;;;;;;10.49;83.78;100045.91;1648173;87;21092;-79
2023/01/01 04:00:55;;;;;;;11.22;9.78;;;;;;;10.54;83.84;100051.91;1636014;85;21322;-80
2023/01/01 04:03:24;;;;;;;14.43;10.00;;;;;;;10.58;83.85;100067.85;1660679;84;21032;-80
2023/01/01 04:05:51;;;;;;;10.58;9.48;;;;;;;10.61;83.65;100056.60;1666394;86;21059;-80
2023/01/01 04:08:18;;;;;;;11.97;10.05;;;;;;;10.63;83.66;100063.09;1667626;86;21055;-81
2023/01/01 04:10:49;;;;;;;10.68;9.65;;;;;;;10.64;83.57;100053.97;1667294;86;21043;-79
2023/01/01 04:13:16;;;;;;;10.88;9.63;;;;;;;10.66;83.55;100045.12;1665721;84;21232;-80
2023/01/01 04:15:42;;;;;;;13.93;9.85;;;;;;;10.65;83.60;100055.58;1645061;87;21091;-81
2023/01/01 04:18:09;;;;;;;11.30;9.13;;;;;;;10.65;83.61;100077.10;1647068;85;21075;-80
2023/01/01 04:20:36;;;;;;;10.25;9.25;;;;;;;10.66;83.55;100049.16;1653119;85;21097;-80
2023/01/01 04:23:02;;;;;;;12.35;10.00;;;;;;;10.67;83.51;100051.61;1645399;87;21135;-79
2023/01/01 04:25:31;;;;;;;11.60;10.28;;;;;;;10.71;83.47;100046.55;1645206;85;21231;-80
2023/01/01 04:27:57;;;;;;;11.08;9.85;;;;;;;10.70;83.39;100045.73;1653424;85;21099;-78
2023/01/01 04:30:24;;;;;;;12.50;9.55;;;;;;;10.69;83.42;100041.44;1655676;85;20960;-78
2023/01/01 04:32:51;;;;;;;9.98;8.85;;;;;;;10.69;83.45;100046.00;1618645;87;21213;-79
2023/01/01 04:35:18;;;;;;;11.18;8.43;;;;;;;10.69;83.47;100050.86;1644807;87;21079;-78
2023/01/01 04:37:45;;;;;;;10.70;9.60;;;;;;;10.71;83.46;100036.61;1648079;85;21603;-79
2023/01/01 04:40:14;;;;;;;11.28;8.65;;;;;;;10.71;83.51;100053.28;1675102;85;21012;-79
2023/01/01 04:42:43;;;;;;;10.05;8.90;;;;;;;10.72;83.51;100038.78;1675374;85;20949;-79
2023/01/01 04:45:13;;;;;;;12.10;8.90;;;;;;;10.73;83.47;100041.23;1658133;85;21028;-78
2023/01/01 04:47:42;;;;;;;10.23;9.20;;;;;;;10.71;83.53;100052.75;1618983;87;21117;-78
2023/01/01 04:50:09;;;;;;;9.53;7.80;;;;;;;10.70;83.62;100039.01;1674585;84;21252;-79
2023/01/01 04:52:37;;;;;;;9.55;8.55;;;;;;;10.71;83.72;100046.03;1689429;84;21624;-77
2023/01/01 04:55:07;;;;;;;9.73;8.40;;;;;;;10.73;83.78;100045.27;1665692;86;21497;-77
2023/01/01 04:57:35;;;;;;;13.32;10.85;;;;;;;10.75;83.77;100049.05;1660975;84;20984;-79
2023/01/01 05:00:04;;;;;;;12.40;9.98;;;;;;;10.77;83.72;100065.25;1674240;84;21070;-82
2023/01/01 05:02:31;;;;;;;9.83;8.33;;;;;;;10.77;83.68;100057.17;1694087;84;21248;-79
2023/01/01 05:04:59;;;;;;;11.03;8.38;;;;;;;10.77;83.65;100063.08;1658948;86;21664;-79
2023/01/01 05:07:28;;;;;;;13.08;8.90;;;;;;;10.76;83.72;100064.13;1663855;84;20999;-78
2023/01/01 05:09:55;;;;;;;10.23;8.80;;;;;;;10.76;83.82;100068.17;1684901;84;21051;-79
2023/01/01 05:12:22;;;;;;;11.80;8.53;;;;;;;10.77;83.83;100059.87;1696917;84;21054;-81
2023/01/01 05:14:49;;;;;;;11.12;8.25;;;;;;;10.79;83.89;100060.98;1680234;83;21199;-80
2023/01/01 05:17:15;;;;;;;9.83;8.83;;;;;;;10.81;83.77;100081.19;1663541;85;21020;-80
2023/01/01 05:19:42;;;;;;;8.00;7.22;;;;;;;10.81;83.82;100062.88;1689538;84;21090;-76
2023/01/01 05:22:08;;;;;;;12.95;8.08;;;;;;;10.78;83.92;100050.75;1657746;86;21000;-77
2023/01/01 05:24:38;;;;;;;12.88;8.58;;;;;;;10.77;84.01;100067.94;1664997;86;21072;-77
2023/01/01 05:27:05;;;;;;;9.43;8.05;;;;;;;10.79;84.10;100058.29;1663613;85;21301;-80
2023/01/01 05:29:31;;;;;;;11.43;9.10;;;;;;;10.79;84.14;100055.05;1680498;84;21602;-80
2023/01/01 05:31:58;;;;;;;11.57;9.40;;;;;;;10.80;84.13;100074.70;1696562;84;21007;-79
2023/01/01 05:34:28;;;;;;;12.95;8.48;;;;;;;10.78;84.25;100060.16;1669728;84;21033;-77
2023/01/01 05:36:55;;;;;;;11.33;8.33;;;;;;;10.79;84.31;100062.33;1663130;86;21606;-79
2023/01/01 05:39:22;;;;;;;10.55;8.45;;;;;;;10.78;84.39;100065.54;1667744;84;21135;-79
2023/01/01 05:41:48;;;;;;;12.70;7.97;;;;;;;10.76;84.49;100050.16;1696052;84;20983;-78
2023/01/01 05:44:16;;;;;;;11.08;8.35;;;;;;;10.78;84.58;100055.30;1679784;84;20997;-80
2023/01/01 05:46:42;;;;;;;10.58;8.63;;;;;;;10.77;84.63;100059.87;1663231;86;21088;-80
2023/01/01 05:49:10;;;;;;;10.93;7.95;;;;;;;10.78;84.69;100078.17;1690180;84;21035;-78
2023/01/01 05:51:37;;;;;;;9.38;8.48;;;;;;;10.77;84.71;100069.81;1694567;84;21106;-76
2023/01/01 05:54:05;;;;;;;9.10;7.72;;;;;;;10.76;84.80;100068.17;1663140;86;21818;-77
2023/01/01 05:56:31;;;;;;;9.58;7.47;;;;;;;10.72;84.94;100072.41;1670480;84;21024;-79
2023/01/01 05:59:00;;;;;;;9.80;8.45;;;;;;;10.72;85.11;100077.79;1693782;84;21525;-79
2023/01/01 06:01:29;;;;;;;10.08;8.93;;;;;;;10.71;85.28;100094.98;1696280;84;21617;-80
2023/01/01 06:03:57;;;;;;;10.08;7.47;;;;;;;10.72;85.34;100077.79;1659097;85;21575;-80
2023/01/01 06:06:27;;;;;;;10.70;8.20;;;;;;;10.72;85.41;100084.52;1661604;85;21561;-80
2023/01/01 06:09:00;;;;;;;11.95;7.40;;;;;;;10.72;85.48;100077.79;1635089;85;21106;-79
2023/01/01 06:11:28;;;;;;;8.73;7.83;;;;;;;10.71;85.49;100072.11;1645680;86;21602;-78
2023/01/01 06:13:57;;;;;;;8.13;6.75;;;;;;;10.70;85.57;100100.06;1652621;85;21088;-79
2023/01/01 06:16:24;;;;;;;9.78;8.00;;;;;;;10.68;85.64;100097.64;1669695;85;21814;-80
2023/01/01 06:18:54;;;;;;;7.75;6.33;;;;;;;10.68;85.79;100098.16;1675562;84;21133;-78
2023/01/01 06:21:23;;;;;;;8.33;7.53;;;;;;;10.69;85.81;100099.80;1674179;85;21602;-80
2023/01/01 06:23:50;;;;;;;9.05;7.95;;;;;;;10.70;85.86;100089.30;1665305;85;20972;-80
2023/01/01 06:26:21;;;;;;;8.53;7.12;;;;;;;10.68;85.91;100106.23;1662369;85;21064;-80
2023/01/01 06:28:48;;;;;;;9.75;7.15;;;;;;;10.66;86.02;100098.39;1673582;84;21406;-79
2023/01/01 06:31:18;;;;;;;8.63;7.20;;;;;;;10.68;86.13;100094.13;1675552;84;21056;-79
2023/01/01 06:33:46;;;;;;;9.70;7.78;;;;;;;10.69;86.18;100093.08;1674303;84;21000;-79
2023/01/01 06:36:15;;;;;;;7.92;7.12;;;;;;;10.71;86.19;100101.18;1651693;84;21627;-78
2023/01/01 06:38:48;;;;;;;11.90;8.08;;;;;;;10.74;86.12;100088.58;1668639;85;21087;-79
2023/01/01 06:41:29;;;;;;;10.30;7.85;;;;;;;10.73;86.09;100100.95;1652141;85;21449;-80
2023/01/01 06:44:00;;;;;;;8.10;6.62;;;;;;;10.74;86.25;100103.94;1673178;84;21616;-79
2023/01/01 06:46:37;;;;;;;12.88;7.03;;;;;;;10.75;86.17;100098.30;1632280;87;21569;-77
2023/01/01 06:49:13;;;;;;;6.85;6.15;;;;;;;10.77;86.17;100085.43;1637834;86;21630;-79
2023/01/01 06:51:43;;;;;;;7.25;6.47;;;;;;;10.83;86.01;100094.41;1660241;86;21544;-78
2023/01/01 06:54:12;;;;;;;7.78;6.97;;;;;;;10.84;85.89;100083.91;1616298;85;20995;-79
2023/01/01 06:56:42;;;;;;;8.93;6.45;;;;;;;10.86;85.87;100091.23;1631338;87;21130;-80
2023/01/01 06:59:11;;;;;;;8.03;6.50;;;;;;;10.87;85.74;100084.27;1629270;86;21077;-78
2023/01/01 07:01:46;;;;;;;8.73;6.08;;;;;;;10.88;85.71;100093.16;1593517;85;21099;-78
2023/01/01 07:04:15;;;;;;;8.38;7.20;;;;;;;10.91;85.67;100100.73;1635924;86;21091;-79
2023/01/01 07:06:45;;;;;;;12.35;6.75;;;;;;;10.94;85.63;100097.03;1646912;84;21075;-79
2023/01/01 07:09:11;;;;;;;9.55;7.03;;;;;;;10.97;85.44;100089.54;1653789;84;21104;-77
2023/01/01 07:11:38;;;;;;;9.83;7.40;;;;;;;10.99;85.36;100097.64;1634561;86;21100;-77
2023/01/01 07:14:04;;;;;;;9.43;7.17;;;;;;;11.03;85.29;100099.34;1664742;84;21067;-77
2023/01/01 07:16:32;;;;;;;7.78;6.92;;;;;;;11.04;85.16;100096.91;1648880;84;21090;-78
2023/01/01 07:19:00;;;;;;;7.70;6.15;;;;;;;11.06;85.05;100102.88;1680921;84;21084;-76
2023/01/01 07:21:42;;;;;;;9.78;6.75;;;;;;;11.06;84.98;100106.39;1650267;86;21024;-77
2023/01/01 07:24:11;;;;;;;8.17;7.33;;;;;;;11.09;84.92;100096.48;1656616;85;21067;-82
2023/01/01 07:26:38;;;;;;;7.92;6.97;;;;;;;11.11;84.83;100091.68;1682403;84;21007;-78
2023/01/01 07:29:07;;;;;;;8.80;6.83;;;;;;;11.16;84.68;100099.03;1666436;84;21052;-79
2023/01/01 07:31:38;;;;;;;7.62;6.53;;;;;;;11.19;84.47;100103.38;1650486;86;21268;-79
2023/01/01 07:34:07;;;;;;;8.00;7.10;;;;;;;11.21;84.27;100101.80;1636107;86;21066;-80
2023/01/01 07:36:34;;;;;;;8.20;6.05;;;;;;;11.21;84.18;100097.23;1656593;85;21083;-80
2023/01/01 07:39:01;;;;;;;8.25;7.28;;;;;;;11.24;84.13;100091.88;1661489;84;21047;-78
2023/01/01 07:41:27;;;;;;;8.45;6.72;;;;;;;11.28;84.10;100090.33;1640698;84;21501;-80
2023/01/01 07:43:55;;;;;;;9.93;7.33;;;;;;;11.32;84.00;100088.77;1677148;84;21302;-81
2023/01/01 07:46:21;;;;;;;8.30;7.05;;;;;;;11.37;83.74;100099.62;1665928;85;21594;-79
2023/01/01 07:48:48;;;;;;;9.13;6.55;;;;;;;11.41;83.63;100091.90;1660364;86;21035;-81
2023/01/01 07:51:15;;;;;;;7.28;6.45;;;;;;;11.42;83.35;100098.89;1653520;86;21071;-78
2023/01/01 07:53:42;;;;;;;6.70;6.03;;;;;;;11.44;83.26;100096.26;1676799;84;21099;-77
2023/01/01 07:56:09;;;;;;;7.10;6.40;;;;;;;11.47;83.15;100084.98;1690823;84;21264;-80
2023/01/01 07:58:40;;;;;;;6.10;5.50;;;;;;;11.48;83.01;100093.88;1652270;83;20995;-80
2023/01/01 08:01:16;;;;;;;7.05;6.33;;;;;;;11.51;82.86;100080.73;1656736;86;21094;-82
2023/01/01 08:03:50;;;;;;;7.35;6.28;;;;;;;11.56;82.72;100086.75;1661032;85;20987;-82
2023/01/01 08:06:19;;;;;;;9.55;6.75;;;;;;;11.59;82.62;100103.23;1654136;86;20965;-81
2023/01/01 08:08:48;;;;;;;7.62;6.15;;;;;;;11.64;82.34;100095.76;1629930;86;21121;-83
2023/01/01 08:11:16;;;;;;;7.37;6.10;;;;;;;11.65;82.14;100118.42;1662013;85;20977;-82
2023/01/01 08:13:44;;;;;;;9.00;7.00;;;;;;;11.68;82.08;100086.11;1645424;86;21044;-83
2023/01/01 08:16:15;;;;;;;6.97;5.70;;;;;;;11.70;81.84;100075.36;1643428;86;20999;-82
2023/01/01 08:18:51;;;;;;;8.05;7.03;;;;;;;11.73;81.69;100084.34;1621157;86;21094;-80
2023/01/01 08:21:17;;;;;;;8.68;6.47;;;;;;;11.75;81.53;100095.67;1641766;85;21677;-79
2023/01/01 08:23:44;;;;;;;9.18;6.12;;;;;;;11.80;81.46;100083.63;1640518;85;21084;-81
2023/01/01 08:26:25;;;;;;;7.97;7.10;;;;;;;11.85;81.22;100085.57;1635953;86;21069;-81
2023/01/01 08:28:51;;;;;;;7.53;6.17;;;;;;;11.89;81.10;100081.87;1618027;86;21122;-82
2023/01/01 08:31:20;;;;;;;7.28;6.40;;;;;;;11.93;80.69;100083.00;1664381;86;21110;-79
2023/01/01 08:33:52;;;;;;;9.18;5.83;;;;;;;11.96;80.66;100087.35;1664452;86;21781;-80
2023/01/01 08:36:19;;;;;;;7.17;6.12;;;;;;;11.98;80.26;100079.84;1641564;86;21024;-82
2023/01/01 08:39:09;;;;;;;12.50;6.58;;;;;;;12.01;80.20;100088.77;1653826;86;21056;-84
2023/01/01 08:41:49;;;;;;;6.62;5.97;;;;;;;12.08;79.95;100076.47;1665376;85;21082;-80
2023/01/01 08:44:19;;;;;;;7.10;6.15;;;;;;;12.14;79.65;100070.05;1629816;85;21128;-82
2023/01/01 08:46:46;;;;;;;8.73;6.95;;;;;;;12.21;79.38;100080.13;1669469;85;21427;-83
2023/01/01 08:49:14;;;;;;;8.53;5.72;;;;;;;12.22;78.97;100075.84;1668725;85;21002;-79
2023/01/01 08:51:40;;;;;;;7.30;6.42;;;;;;;12.27;78.74;100091.27;1646645;86;21599;-77
2023/01/01 08:54:07;;;;;;;7.90;6.62;;;;;;;12.31;78.47;100078.09;1618223;87;21162;-80
2023/01/01 08:56:33;;;;;;;6.30;5.70;;;;;;;12.35;78.24;100085.95;1670762;85;21625;-82
2023/01/01 08:59:00;;;;;;;8.28;7.45;;;;;;;12.40;78.11;100072.53;1655516;86;21169;-81
2023/01/01 09:01:29;;;;;;;9.45;6.75;;;;;;;12.44;77.82;100065.03;1649660;85;21212;-80
2023/01/01 09:03:56;;;;;;;7.75;6.55;;;;;;;12.45;77.21;100072.59;1640291;85;21036;-80
2023/01/01 09:06:37;;;;;;;7.00;6.30;;;;;;;12.46;77.31;100056.69;1641546;86;21066;-82
2023/01/01 09:09:04;;;;;;;7.83;6.90;;;;;;;12.48;77.21;100051.31;1649010;86;21036;-79
2023/01/01 09:11:32;;;;;;;6.92;5.78;;;;;;;12.50;77.12;100060.51;1658166;86;21088;-76
2023/01/01 09:13:59;;;;;;;5.33;4.10;;;;;;;12.50;76.89;100060.51;1619371;87;21061;-74
2023/01/01 09:16:27;;;;;;;7.42;6.55;;;;;;;12.46;76.49;100060.20;1640486;85;21048;-75
2023/01/01 09:18:55;;;;;;;7.70;6.10;;;;;;;12.48;76.62;100056.70;1615504;87;21027;-75
2023/01/01 09:21:22;;;;;;;10.80;6.95;;;;;;;12.51;76.62;100065.66;1639526;85;21574;-75
2023/01/01 09:23:49;;;;;;;8.18;6.62;;;;;;;12.55;76.50;100061.38;1645424;85;21212;-77
2023/01/01 09:26:16;;;;;;;9.00;7.65;;;;;;;12.57;76.29;100051.13;1640964;85;21586;-74
2023/01/01 09:28:42;;;;;;;11.70;7.00;;;;;;;12.60;76.17;100050.64;1658877;86;21083;-77
2023/01/01 09:31:11;;;;;;;7.05;6.35;;;;;;;12.63;75.82;100083.86;1664574;85;21050;-76
2023/01/01 09:33:39;;;;;;;7.65;6.75;;;;;;;12.64;75.75;100055.81;1660463;85;22201;-75
2023/01/01 09:36:24;;;;;;;9.28;7.33;;;;;;;12.66;75.68;100043.42;1649133;85;21500;-80
2023/01/01 09:38:54;;;;;;;10.70;6.60;;;;;;;12.68;75.54;100029.94;1636666;85;21088;-77
2023/01/01 09:41:42;;;;;;;8.08;6.58;;;;;;;12.73;75.48;100044.02;1654488;85;21066;-77
2023/01/01 09:44:54;;;;;;;8.20;6.15;;;;;;;12.77;75.12;100032.98;1635531;86;21063;-77
2023/01/01 09:47:45;;;;;;;11.85;7.42;;;;;;;12.79;74.72;100034.91;1652388;85;21548;-82
2023/01/01 09:50:23;;;;;;;10.45;7.65;;;;;;;12.82;74.53;100024.94;1651400;85;21140;-81
2023/01/01 09:53:00;;;;;;;7.97;6.53;;;;;;;12.83;74.52;100039.25;1627102;86;21019;-80
2023/01/01 09:55:52;;;;;;;10.00;7.00;;;;;;;12.83;74.34;100029.27;1619393;87;21102;-79
2023/01/01 09:58:24;;;;;;;9.18;6.70;;;;;;;12.86;74.38;100027.39;1637648;85;21044;-77
2023/01/01 10:00:56;;;;;;;10.82;6.40;;;;;;;12.87;74.38;100022.81;1648125;86;21078;-77
2023/01/01 10:03:47;;;;;;;9.35;7.10;;;;;;;12.88;74.30;100010.95;1640147;85;21118;-79
2023/01/01 10:06:24;;;;;;;13.75;7.50;;;;;;;12.89;74.11;100035.00;1638825;85;21009;-79
2023/01/01 10:09:20;;;;;;;12.05;7.75;;;;;;;12.89;74.15;100045.80;1645263;85;21097;-79
2023/01/01 10:12:21;;;;;;;10.78;8.15;;;;;;;12.92;74.10;100027.73;1634951;84;21031;-79
2023/01/01 10:14:57;;;;;;;8.85;7.03;;;;;;;12.95;73.78;100027.77;1640139;85;21041;-78
2023/01/01 10:17:35;;;;;;;10.05;7.78;;;;;;;12.97;73.62;100023.72;1669921;85;22245;-81
2023/01/01 10:20:30;;;;;;;10.18;7.47;;;;;;;12.99;73.56;100004.58;1635905;87;21154;-84
2023/01/01 10:23:12;;;;;;;9.05;7.37;;;;;;;12.99;73.56;100015.38;1670215;85;21014;-85
2023/01/01 10:25:45;;;;;;;10.60;7.72;;;;;;;13.00;73.50;100014.28;1670637;85;21555;-80
2023/01/01 10:28:17;;;;;;;9.83;7.62;;;;;;;12.99;73.31;100014.84;1637652;85;21172;-80
2023/01/01 10:30:50;;;;;;;9.73;7.17;;;;;;;13.01;73.30;100029.41;1684874;84;21078;-82
2023/01/01 10:33:21;;;;;;;12.18;7.42;;;;;;;12.99;73.21;100029.69;1656621;85;21202;-81
2023/01/01 10:35:52;;;;;;;8.38;7.22;;;;;;;13.01;73.29;100010.52;1646220;85;21052;-80
2023/01/01 10:38:23;;;;;;;8.63;6.67;;;;;;;12.98;73.15;100018.61;1641792;87;21114;-82
2023/01/01 10:40:57;;;;;;;8.70;6.95;;;;;;;12.98;73.12;100017.27;1643900;85;21107;-78
2023/01/01 10:43:25;;;;;;;13.53;8.35;;;;;;;13.01;73.09;100017.27;1688782;85;21244;-82
2023/01/01 10:45:55;;;;;;;9.08;7.47;;;;;;;13.04;73.00;100045.13;1678040;84;21047;-79
2023/01/01 10:48:29;;;;;;;9.40;7.08;;;;;;;13.07;72.86;100035.14;1616501;88;21078;-79
2023/01/01 10:51:06;;;;;;;8.83;7.42;;;;;;;13.10;72.68;100048.13;1621486;85;21212;-81
2023/01/01 10:53:47;;;;;;;9.83;7.00;;;;;;;13.12;72.54;100029.00;1682374;84;21148;-82
2023/01/01 10:56:22;;;;;;;9.05;8.15;;;;;;;13.13;72.52;100031.45;1644199;85;21570;-80
2023/01/01 10:58:57;;;;;;;;;;;;;;;13.14;72.40;100029.57;1643599;85;21019;-82
2023/01/01 11:01:32;;;;;;;8.53;7.20;;;;;;;13.13;72.42;100022.53;1674896;84;20213;-81
2023/01/01 11:04:02;;;;;;;8.18;7.28;;;;;;;13.10;72.47;100025.16;1665334;86;21063;-80
2023/01/01 11:06:53;;;;;;;12.78;8.60;;;;;;;13.09;72.51;100020.30;1670918;85;21007;-77
2023/01/01 11:09:27;;;;;;;9.53;7.65;;;;;;;13.08;72.49;100040.30;1661233;84;20971;-81
2023/01/01 11:12:05;;;;;;;7.37;6.45;;;;;;;13.07;72.60;100024.34;1638363;85;21046;-80
2023/01/01 11:14:58;;;;;;;7.65;6.85;;;;;;;13.07;72.58;100040.02;1667663;85;21535;-80
2023/01/01 11:17:29;;;;;;;7.60;6.80;;;;;;;13.07;72.59;100022.46;1647554;85;21119;-86
2023/01/01 11:19:57;;;;;;;9.75;7.75;;;;;;;13.09;72.54;100030.31;1645974;84;21055;-75
2023/01/01 11:22:46;;;;;;;11.28;8.13;;;;;;;13.13;72.53;100060.34;1658107;85;20991;-77
2023/01/01 11:25:28;;;;;;;9.30;7.12;;;;;;;13.16;72.37;100031.45;1649096;85;20999;-77
2023/01/01 11:28:18;;;;;;;8.35;7.50;;;;;;;13.19;72.21;100041.20;1631571;84;21157;-75
2023/01/01 11:31:22;;;;;;;10.40;7.50;;;;;;;13.23;72.21;100045.04;1639341;86;21060;-77
2023/01/01 11:33:54;;;;;;;15.05;8.45;;;;;;;13.26;72.04;100035.06;1636956;86;21182;-80
2023/01/01 11:36:31;;;;;;;8.80;7.37;;;;;;;13.28;71.99;100035.62;1640979;87;21934;-76
2023/01/01 11:39:26;;;;;;;8.85;7.75;;;;;;;13.32;71.83;100045.38;1648123;84;20971;-80
2023/01/01 11:41:55;;;;;;;10.20;7.42;;;;;;;13.36;71.77;100027.03;1586742;88;21676;-76
2023/01/01 11:44:35;;;;;;;7.45;6.78;;;;;;;13.39;71.65;100027.03;1614508;88;21038;-78
2023/01/01 11:47:03;;;;;;;9.80;6.92;;;;;;;13.42;71.44;100026.00;1637710;85;21067;-76
2023/01/01 11:49:31;;;;;;;7.90;6.97;;;;;;;13.45;71.32;100028.70;1638594;87;21160;-76